sensor_id;sensor_type;location;lat;lon;timestamp;temperature;humidity
72905;DHT22;61048;52.162;4.516;2022-12-11T00:00:05;14.80;62.00
72905;DHT22;61048;52.162;4.516;2022-12-11T00:02:32;14.80;61.90
72905;DHT22;61048;52.162;4.516;2022-12-11T00:05:01;14.80;62.00
72905;DHT22;61048;52.162;4.516;2022-12-11T00:07:27;14.80;62.20
72905;DHT22;61048;52.162;4.516;2022-12-11T00:09:56;14.80;62.00
72905;DHT22;61048;52.162;4.516;2022-12-11T00:12:23;14.80;62.00
72905;DHT22;61048;52.162;4.516;2022-12-11T00:14:50;14.80;62.00
72905;DHT22;61048;52.162;4.516;2022-12-11T00:17:17;14.80;62.00
72905;DHT22;61048;52.162;4.516;2022-12-11T00:19:44;14.80;62.20
72905;DHT22;61048;52.162;4.516;2022-12-11T00:22:12;14.80;62.00
72905;DHT22;61048;52.162;4.516;2022-12-11T00:24:39;14.70;62.20
72905;DHT22;61048;52.162;4.516;2022-12-11T00:27:06;14.80;62.10
72905;DHT22;61048;52.162;4.516;2022-12-11T00:29:33;14.70;62.10
72905;DHT22;61048;52.162;4.516;2022-12-11T00:31:59;14.80;62.20
72905;DHT22;61048;52.162;4.516;2022-12-11T00:34:27;14.80;62.20
72905;DHT22;61048;52.162;4.516;2022-12-11T00:36:54;14.70;62.10
72905;DHT22;61048;52.162;4.516;2022-12-11T00:39:22;14.70;62.20
72905;DHT22;61048;52.162;4.516;2022-12-11T00:41:49;14.70;62.20
72905;DHT22;61048;52.162;4.516;2022-12-11T00:44:16;14.70;62.20
72905;DHT22;61048;52.162;4.516;2022-12-11T00:46:43;14.70;62.40
72905;DHT22;61048;52.162;4.516;2022-12-11T00:49:10;14.70;62.40
72905;DHT22;61048;52.162;4.516;2022-12-11T00:51:37;14.70;62.20
72905;DHT22;61048;52.162;4.516;2022-12-11T00:54:04;14.70;62.30
72905;DHT22;61048;52.162;4.516;2022-12-11T00:56:33;14.70;62.30
72905;DHT22;61048;52.162;4.516;2022-12-11T00:59:00;14.70;62.40
72905;DHT22;61048;52.162;4.516;2022-12-11T01:01:27;14.70;62.40
72905;DHT22;61048;52.162;4.516;2022-12-11T01:03:54;14.70;62.40
72905;DHT22;61048;52.162;4.516;2022-12-11T01:06:23;14.70;62.30
72905;DHT22;61048;52.162;4.516;2022-12-11T01:08:51;14.70;62.40
72905;DHT22;61048;52.162;4.516;2022-12-11T01:11:41;14.70;62.40
72905;DHT22;61048;52.162;4.516;2022-12-11T01:14:07;14.70;62.60
72905;DHT22;61048;52.162;4.516;2022-12-11T01:16:34;14.60;62.60
72905;DHT22;61048;52.162;4.516;2022-12-11T01:19:01;14.70;62.50
72905;DHT22;61048;52.162;4.516;2022-12-11T01:21:29;14.70;62.60
72905;DHT22;61048;52.162;4.516;2022-12-11T01:23:56;14.70;62.60
72905;DHT22;61048;52.162;4.516;2022-12-11T01:26:22;14.70;62.60
72905;DHT22;61048;52.162;4.516;2022-12-11T01:28:51;14.60;62.70
72905;DHT22;61048;52.162;4.516;2022-12-11T01:31:19;14.70;62.70
72905;DHT22;61048;52.162;4.516;2022-12-11T01:33:46;14.70;62.60
72905;DHT22;61048;52.162;4.516;2022-12-11T01:36:16;14.60;62.70
72905;DHT22;61048;52.162;4.516;2022-12-11T01:38:43;14.60;62.70
72905;DHT22;61048;52.162;4.516;2022-12-11T01:41:11;14.60;62.70
72905;DHT22;61048;52.162;4.516;2022-12-11T01:43:58;14.60;62.70
72905;DHT22;61048;52.162;4.516;2022-12-11T01:46:26;14.60;62.60
72905;DHT22;61048;52.162;4.516;2022-12-11T01:48:53;14.60;62.70
72905;DHT22;61048;52.162;4.516;2022-12-11T01:51:20;14.60;62.80
72905;DHT22;61048;52.162;4.516;2022-12-11T01:53:49;14.60;62.80
72905;DHT22;61048;52.162;4.516;2022-12-11T01:56:18;14.60;62.80
72905;DHT22;61048;52.162;4.516;2022-12-11T01:58:49;14.60;62.90
72905;DHT22;61048;52.162;4.516;2022-12-11T02:01:23;14.60;62.80
72905;DHT22;61048;52.162;4.516;2022-12-11T02:03:52;14.60;62.80
72905;DHT22;61048;52.162;4.516;2022-12-11T02:06:34;14.60;62.90
72905;DHT22;61048;52.162;4.516;2022-12-11T02:09:02;14.60;62.90
72905;DHT22;61048;52.162;4.516;2022-12-11T02:11:37;14.60;63.10
72905;DHT22;61048;52.162;4.516;2022-12-11T02:14:10;14.60;63.00
72905;DHT22;61048;52.162;4.516;2022-12-11T02:16:45;14.60;63.00
72905;DHT22;61048;52.162;4.516;2022-12-11T02:19:26;14.60;63.10
72905;DHT22;61048;52.162;4.516;2022-12-11T02:21:56;14.60;63.10
72905;DHT22;61048;52.162;4.516;2022-12-11T02:24:37;14.60;63.10
72905;DHT22;61048;52.162;4.516;2022-12-11T02:27:17;14.60;63.30
72905;DHT22;61048;52.162;4.516;2022-12-11T02:29:50;14.60;63.20
72905;DHT22;61048;52.162;4.516;2022-12-11T02:32:21;14.60;63.20
72905;DHT22;61048;52.162;4.516;2022-12-11T02:34:55;14.60;63.20
72905;DHT22;61048;52.162;4.516;2022-12-11T02:37:26;14.60;63.20
72905;DHT22;61048;52.162;4.516;2022-12-11T02:39:55;14.60;63.20
72905;DHT22;61048;52.162;4.516;2022-12-11T02:42:26;14.60;63.20
72905;DHT22;61048;52.162;4.516;2022-12-11T02:44:57;14.60;63.20
72905;DHT22;61048;52.162;4.516;2022-12-11T02:47:29;14.60;63.10
72905;DHT22;61048;52.162;4.516;2022-12-11T02:49:58;14.60;63.00
72905;DHT22;61048;52.162;4.516;2022-12-11T02:52:27;14.60;63.00
72905;DHT22;61048;52.162;4.516;2022-12-11T02:54:57;14.60;63.10
72905;DHT22;61048;52.162;4.516;2022-12-11T02:57:28;14.60;63.10
72905;DHT22;61048;52.162;4.516;2022-12-11T02:59:57;14.60;63.10
72905;DHT22;61048;52.162;4.516;2022-12-11T03:02:24;14.60;63.10
72905;DHT22;61048;52.162;4.516;2022-12-11T03:04:51;14.60;63.10
72905;DHT22;61048;52.162;4.516;2022-12-11T03:07:22;14.50;63.20
72905;DHT22;61048;52.162;4.516;2022-12-11T03:09:51;14.60;63.20
72905;DHT22;61048;52.162;4.516;2022-12-11T03:12:20;14.60;63.20
72905;DHT22;61048;52.162;4.516;2022-12-11T03:14:48;14.50;63.20
72905;DHT22;61048;52.162;4.516;2022-12-11T03:17:18;14.50;63.10
72905;DHT22;61048;52.162;4.516;2022-12-11T03:19:52;14.50;63.20
72905;DHT22;61048;52.162;4.516;2022-12-11T03:22:23;14.50;63.20
72905;DHT22;61048;52.162;4.516;2022-12-11T03:24:57;14.60;63.20
72905;DHT22;61048;52.162;4.516;2022-12-11T03:27:29;14.50;63.20
72905;DHT22;61048;52.162;4.516;2022-12-11T03:30:02;14.50;63.30
72905;DHT22;61048;52.162;4.516;2022-12-11T03:32:35;14.50;63.20
72905;DHT22;61048;52.162;4.516;2022-12-11T03:35:07;14.50;63.30
72905;DHT22;61048;52.162;4.516;2022-12-11T03:37:39;14.50;63.20
72905;DHT22;61048;52.162;4.516;2022-12-11T03:40:09;14.50;63.20
72905;DHT22;61048;52.162;4.516;2022-12-11T03:42:38;14.60;63.40
72905;DHT22;61048;52.162;4.516;2022-12-11T03:45:07;14.50;63.40
72905;DHT22;61048;52.162;4.516;2022-12-11T03:47:37;14.50;63.30
72905;DHT22;61048;52.162;4.516;2022-12-11T03:50:07;14.50;63.40
72905;DHT22;61048;52.162;4.516;2022-12-11T03:52:36;14.50;63.40
72905;DHT22;61048;52.162;4.516;2022-12-11T03:55:04;14.50;63.40
72905;DHT22;61048;52.162;4.516;2022-12-11T03:57:35;14.50;63.40
72905;DHT22;61048;52.162;4.516;2022-12-11T04:00:03;14.50;63.30
72905;DHT22;61048;52.162;4.516;2022-12-11T04:02:30;14.50;63.50
72905;DHT22;61048;52.162;4.516;2022-12-11T04:04:58;14.50;63.40
72905;DHT22;61048;52.162;4.516;2022-12-11T04:07:25;14.50;63.30
72905;DHT22;61048;52.162;4.516;2022-12-11T04:09:53;14.50;63.40
72905;DHT22;61048;52.162;4.516;2022-12-11T04:12:20;14.50;63.40
72905;DHT22;61048;52.162;4.516;2022-12-11T04:14:47;14.50;63.30
72905;DHT22;61048;52.162;4.516;2022-12-11T04:17:29;14.50;63.10
72905;DHT22;61048;52.162;4.516;2022-12-11T04:20:16;14.50;63.30
72905;DHT22;61048;52.162;4.516;2022-12-11T04:23:03;14.50;63.50
72905;DHT22;61048;52.162;4.516;2022-12-11T04:25:47;14.50;63.50
72905;DHT22;61048;52.162;4.516;2022-12-11T04:28:14;14.50;63.30
72905;DHT22;61048;52.162;4.516;2022-12-11T04:30:47;14.50;63.40
72905;DHT22;61048;52.162;4.516;2022-12-11T04:33:14;14.50;63.30
72905;DHT22;61048;52.162;4.516;2022-12-11T04:35:42;14.50;63.40
72905;DHT22;61048;52.162;4.516;2022-12-11T04:38:10;14.50;63.40
72905;DHT22;61048;52.162;4.516;2022-12-11T04:40:37;14.50;63.40
72905;DHT22;61048;52.162;4.516;2022-12-11T04:43:03;14.40;63.20
72905;DHT22;61048;52.162;4.516;2022-12-11T04:45:30;14.40;63.40
72905;DHT22;61048;52.162;4.516;2022-12-11T04:47:57;14.50;63.40
72905;DHT22;61048;52.162;4.516;2022-12-11T04:50:25;14.50;63.40
72905;DHT22;61048;52.162;4.516;2022-12-11T04:52:55;14.50;63.50
72905;DHT22;61048;52.162;4.516;2022-12-11T04:55:22;14.50;63.40
72905;DHT22;61048;52.162;4.516;2022-12-11T04:57:49;14.50;63.50
72905;DHT22;61048;52.162;4.516;2022-12-11T05:00:16;14.40;63.50
72905;DHT22;61048;52.162;4.516;2022-12-11T05:02:43;14.40;63.40
72905;DHT22;61048;52.162;4.516;2022-12-11T05:05:10;14.40;63.40
72905;DHT22;61048;52.162;4.516;2022-12-11T05:07:37;14.40;63.30
72905;DHT22;61048;52.162;4.516;2022-12-11T05:10:08;14.40;63.20
72905;DHT22;61048;52.162;4.516;2022-12-11T05:12:35;14.40;63.30
72905;DHT22;61048;52.162;4.516;2022-12-11T05:15:02;14.40;63.20
72905;DHT22;61048;52.162;4.516;2022-12-11T05:17:29;14.40;63.20
72905;DHT22;61048;52.162;4.516;2022-12-11T05:19:56;14.40;63.30
72905;DHT22;61048;52.162;4.516;2022-12-11T05:22:23;14.40;63.20
72905;DHT22;61048;52.162;4.516;2022-12-11T05:24:50;14.40;63.20
72905;DHT22;61048;52.162;4.516;2022-12-11T05:27:18;14.40;63.10
72905;DHT22;61048;52.162;4.516;2022-12-11T05:29:45;14.40;63.20
72905;DHT22;61048;52.162;4.516;2022-12-11T05:32:12;14.40;63.20
72905;DHT22;61048;52.162;4.516;2022-12-11T05:34:39;14.40;63.20
72905;DHT22;61048;52.162;4.516;2022-12-11T05:37:06;14.40;63.10
72905;DHT22;61048;52.162;4.516;2022-12-11T05:39:33;14.40;63.10
72905;DHT22;61048;52.162;4.516;2022-12-11T05:42:00;14.50;63.10
72905;DHT22;61048;52.162;4.516;2022-12-11T05:44:28;14.50;62.90
72905;DHT22;61048;52.162;4.516;2022-12-11T05:46:55;14.50;62.90
72905;DHT22;61048;52.162;4.516;2022-12-11T05:49:22;14.50;62.80
72905;DHT22;61048;52.162;4.516;2022-12-11T05:51:49;14.50;62.70
72905;DHT22;61048;52.162;4.516;2022-12-11T05:54:16;14.50;62.80
72905;DHT22;61048;52.162;4.516;2022-12-11T05:56:43;14.60;62.80
72905;DHT22;61048;52.162;4.516;2022-12-11T05:59:10;14.50;62.80
72905;DHT22;61048;52.162;4.516;2022-12-11T06:01:40;14.60;62.90
72905;DHT22;61048;52.162;4.516;2022-12-11T06:04:09;14.60;62.90
72905;DHT22;61048;52.162;4.516;2022-12-11T06:06:36;14.60;62.80
72905;DHT22;61048;52.162;4.516;2022-12-11T06:09:05;14.50;62.80
72905;DHT22;61048;52.162;4.516;2022-12-11T06:11:33;14.60;62.80
72905;DHT22;61048;52.162;4.516;2022-12-11T06:14:02;14.60;62.80
72905;DHT22;61048;52.162;4.516;2022-12-11T06:16:29;14.50;62.80
72905;DHT22;61048;52.162;4.516;2022-12-11T06:18:58;14.50;62.80
72905;DHT22;61048;52.162;4.516;2022-12-11T06:21:26;14.60;62.80
72905;DHT22;61048;52.162;4.516;2022-12-11T06:23:56;14.50;62.80
72905;DHT22;61048;52.162;4.516;2022-12-11T06:26:24;14.50;62.80
72905;DHT22;61048;52.162;4.516;2022-12-11T06:28:52;14.50;62.70
72905;DHT22;61048;52.162;4.516;2022-12-11T06:31:19;14.50;62.80
72905;DHT22;61048;52.162;4.516;2022-12-11T06:33:46;14.60;62.80
72905;DHT22;61048;52.162;4.516;2022-12-11T06:36:17;14.50;62.90
72905;DHT22;61048;52.162;4.516;2022-12-11T06:38:45;14.50;62.60
72905;DHT22;61048;52.162;4.516;2022-12-11T06:41:12;14.60;62.70
72905;DHT22;61048;52.162;4.516;2022-12-11T06:43:40;14.50;62.60
72905;DHT22;61048;52.162;4.516;2022-12-11T06:46:09;14.50;62.60
72905;DHT22;61048;52.162;4.516;2022-12-11T06:48:37;14.50;62.70
72905;DHT22;61048;52.162;4.516;2022-12-11T06:51:06;14.50;62.60
72905;DHT22;61048;52.162;4.516;2022-12-11T06:53:34;14.50;62.70
72905;DHT22;61048;52.162;4.516;2022-12-11T06:56:03;14.50;62.80
72905;DHT22;61048;52.162;4.516;2022-12-11T06:58:30;14.50;62.70
72905;DHT22;61048;52.162;4.516;2022-12-11T07:00:56;14.50;62.70
72905;DHT22;61048;52.162;4.516;2022-12-11T07:03:24;14.50;62.80
72905;DHT22;61048;52.162;4.516;2022-12-11T07:05:51;14.50;62.60
72905;DHT22;61048;52.162;4.516;2022-12-11T07:08:17;14.50;62.80
72905;DHT22;61048;52.162;4.516;2022-12-11T07:10:46;14.50;63.00
72905;DHT22;61048;52.162;4.516;2022-12-11T07:13:13;14.50;63.10
72905;DHT22;61048;52.162;4.516;2022-12-11T07:15:39;14.50;63.00
72905;DHT22;61048;52.162;4.516;2022-12-11T07:18:06;14.50;63.00
72905;DHT22;61048;52.162;4.516;2022-12-11T07:20:35;14.40;63.10
72905;DHT22;61048;52.162;4.516;2022-12-11T07:23:02;14.50;63.00
72905;DHT22;61048;52.162;4.516;2022-12-11T07:25:29;14.40;63.00
72905;DHT22;61048;52.162;4.516;2022-12-11T07:27:57;14.40;63.10
72905;DHT22;61048;52.162;4.516;2022-12-11T07:30:24;14.40;63.10
72905;DHT22;61048;52.162;4.516;2022-12-11T07:32:51;14.40;62.90
72905;DHT22;61048;52.162;4.516;2022-12-11T07:35:18;14.40;63.10
72905;DHT22;61048;52.162;4.516;2022-12-11T07:37:44;14.50;63.00
72905;DHT22;61048;52.162;4.516;2022-12-11T07:40:12;14.40;63.00
72905;DHT22;61048;52.162;4.516;2022-12-11T07:42:39;14.50;62.90
72905;DHT22;61048;52.162;4.516;2022-12-11T07:45:08;14.40;62.90
72905;DHT22;61048;52.162;4.516;2022-12-11T07:47:35;14.50;62.90
72905;DHT22;61048;52.162;4.516;2022-12-11T07:50:02;14.40;62.90
72905;DHT22;61048;52.162;4.516;2022-12-11T07:52:29;14.40;62.90
72905;DHT22;61048;52.162;4.516;2022-12-11T07:54:56;14.40;62.90
72905;DHT22;61048;52.162;4.516;2022-12-11T07:57:23;14.40;62.90
72905;DHT22;61048;52.162;4.516;2022-12-11T07:59:50;14.40;62.90
72905;DHT22;61048;52.162;4.516;2022-12-11T08:02:18;14.40;63.00
72905;DHT22;61048;52.162;4.516;2022-12-11T08:04:46;14.40;63.00
72905;DHT22;61048;52.162;4.516;2022-12-11T08:07:14;14.40;63.00
72905;DHT22;61048;52.162;4.516;2022-12-11T08:09:41;14.40;63.10
72905;DHT22;61048;52.162;4.516;2022-12-11T08:12:08;14.40;63.00
72905;DHT22;61048;52.162;4.516;2022-12-11T08:14:36;14.40;62.80
72905;DHT22;61048;52.162;4.516;2022-12-11T08:17:03;14.40;62.90
72905;DHT22;61048;52.162;4.516;2022-12-11T08:19:31;14.40;62.90
72905;DHT22;61048;52.162;4.516;2022-12-11T08:21:58;14.40;63.10
72905;DHT22;61048;52.162;4.516;2022-12-11T08:24:25;14.40;63.00
72905;DHT22;61048;52.162;4.516;2022-12-11T08:26:52;14.40;62.90
72905;DHT22;61048;52.162;4.516;2022-12-11T08:29:19;14.40;62.60
72905;DHT22;61048;52.162;4.516;2022-12-11T08:31:46;14.40;62.80
72905;DHT22;61048;52.162;4.516;2022-12-11T08:34:13;14.40;62.90
72905;DHT22;61048;52.162;4.516;2022-12-11T08:36:41;14.40;62.70
72905;DHT22;61048;52.162;4.516;2022-12-11T08:39:08;14.40;62.90
72905;DHT22;61048;52.162;4.516;2022-12-11T08:41:35;14.40;62.90
72905;DHT22;61048;52.162;4.516;2022-12-11T08:44:02;14.40;62.80
72905;DHT22;61048;52.162;4.516;2022-12-11T08:46:31;14.40;62.90
72905;DHT22;61048;52.162;4.516;2022-12-11T08:48:58;14.40;62.90
72905;DHT22;61048;52.162;4.516;2022-12-11T08:51:26;14.40;62.80
72905;DHT22;61048;52.162;4.516;2022-12-11T08:53:55;14.40;62.90
72905;DHT22;61048;52.162;4.516;2022-12-11T08:56:23;14.40;62.80
72905;DHT22;61048;52.162;4.516;2022-12-11T08:58:50;14.40;62.70
72905;DHT22;61048;52.162;4.516;2022-12-11T09:01:19;14.40;62.80
72905;DHT22;61048;52.162;4.516;2022-12-11T09:03:47;14.50;62.90
72905;DHT22;61048;52.162;4.516;2022-12-11T09:06:16;14.50;62.80
72905;DHT22;61048;52.162;4.516;2022-12-11T09:08:44;14.50;62.80
72905;DHT22;61048;52.162;4.516;2022-12-11T09:11:16;14.50;62.70
72905;DHT22;61048;52.162;4.516;2022-12-11T09:13:44;14.50;62.80
72905;DHT22;61048;52.162;4.516;2022-12-11T09:16:13;14.50;62.80
72905;DHT22;61048;52.162;4.516;2022-12-11T09:18:40;14.50;62.80
72905;DHT22;61048;52.162;4.516;2022-12-11T09:21:09;14.50;62.80
72905;DHT22;61048;52.162;4.516;2022-12-11T09:23:37;14.50;62.80
72905;DHT22;61048;52.162;4.516;2022-12-11T09:26:05;14.50;62.70
72905;DHT22;61048;52.162;4.516;2022-12-11T09:28:34;14.40;62.70
72905;DHT22;61048;52.162;4.516;2022-12-11T09:31:01;14.50;62.80
72905;DHT22;61048;52.162;4.516;2022-12-11T09:33:27;14.50;62.80
72905;DHT22;61048;52.162;4.516;2022-12-11T09:35:57;14.50;62.80
72905;DHT22;61048;52.162;4.516;2022-12-11T09:38:25;14.50;62.90
72905;DHT22;61048;52.162;4.516;2022-12-11T09:40:52;14.50;62.80
72905;DHT22;61048;52.162;4.516;2022-12-11T09:43:36;14.50;62.90
72905;DHT22;61048;52.162;4.516;2022-12-11T09:46:08;14.50;62.50
72905;DHT22;61048;52.162;4.516;2022-12-11T09:48:37;14.50;62.70
72905;DHT22;61048;52.162;4.516;2022-12-11T09:51:11;14.50;62.80
72905;DHT22;61048;52.162;4.516;2022-12-11T09:53:40;14.60;63.00
72905;DHT22;61048;52.162;4.516;2022-12-11T09:56:14;14.60;63.00
72905;DHT22;61048;52.162;4.516;2022-12-11T09:58:53;14.70;62.90
72905;DHT22;61048;52.162;4.516;2022-12-11T10:01:31;14.70;62.90
72905;DHT22;61048;52.162;4.516;2022-12-11T10:04:25;14.80;62.60
72905;DHT22;61048;52.162;4.516;2022-12-11T10:07:04;14.80;62.60
72905;DHT22;61048;52.162;4.516;2022-12-11T10:09:37;14.80;62.20
72905;DHT22;61048;52.162;4.516;2022-12-11T10:12:21;14.80;62.30
72905;DHT22;61048;52.162;4.516;2022-12-11T10:15:09;14.90;62.40
72905;DHT22;61048;52.162;4.516;2022-12-11T10:17:38;14.90;62.50
72905;DHT22;61048;52.162;4.516;2022-12-11T10:20:16;14.90;62.30
72905;DHT22;61048;52.162;4.516;2022-12-11T10:22:47;14.90;62.20
72905;DHT22;61048;52.162;4.516;2022-12-11T10:25:19;15.00;62.30
72905;DHT22;61048;52.162;4.516;2022-12-11T10:27:46;15.00;62.10
72905;DHT22;61048;52.162;4.516;2022-12-11T10:30:17;15.00;61.90
72905;DHT22;61048;52.162;4.516;2022-12-11T10:32:51;15.00;62.10
72905;DHT22;61048;52.162;4.516;2022-12-11T10:35:25;15.00;61.90
72905;DHT22;61048;52.162;4.516;2022-12-11T10:37:57;15.00;61.90
72905;DHT22;61048;52.162;4.516;2022-12-11T10:40:28;15.10;61.90
72905;DHT22;61048;52.162;4.516;2022-12-11T10:42:56;15.10;62.00
72905;DHT22;61048;52.162;4.516;2022-12-11T10:45:25;15.10;61.60
72905;DHT22;61048;52.162;4.516;2022-12-11T10:48:01;15.10;61.70
72905;DHT22;61048;52.162;4.516;2022-12-11T10:50:28;15.10;61.50
72905;DHT22;61048;52.162;4.516;2022-12-11T10:52:55;15.10;61.60
72905;DHT22;61048;52.162;4.516;2022-12-11T10:55:24;15.10;61.60
72905;DHT22;61048;52.162;4.516;2022-12-11T10:57:54;15.20;61.60
72905;DHT22;61048;52.162;4.516;2022-12-11T11:00:31;15.20;61.90
72905;DHT22;61048;52.162;4.516;2022-12-11T11:03:00;15.20;61.60
72905;DHT22;61048;52.162;4.516;2022-12-11T11:05:30;15.20;61.40
72905;DHT22;61048;52.162;4.516;2022-12-11T11:08:13;15.20;61.20
72905;DHT22;61048;52.162;4.516;2022-12-11T11:10:52;15.20;61.50
72905;DHT22;61048;52.162;4.516;2022-12-11T11:13:20;15.20;61.70
72905;DHT22;61048;52.162;4.516;2022-12-11T11:15:57;15.20;61.70
72905;DHT22;61048;52.162;4.516;2022-12-11T11:18:26;15.20;61.40
72905;DHT22;61048;52.162;4.516;2022-12-11T11:20:53;15.20;61.20
72905;DHT22;61048;52.162;4.516;2022-12-11T11:23:21;15.20;60.90
72905;DHT22;61048;52.162;4.516;2022-12-11T11:25:51;15.20;61.40
72905;DHT22;61048;52.162;4.516;2022-12-11T11:28:20;15.30;61.50
72905;DHT22;61048;52.162;4.516;2022-12-11T11:31:03;15.30;61.00
72905;DHT22;61048;52.162;4.516;2022-12-11T11:33:32;15.20;61.10
72905;DHT22;61048;52.162;4.516;2022-12-11T11:36:01;15.20;61.10
72905;DHT22;61048;52.162;4.516;2022-12-11T11:38:32;15.20;60.80
72905;DHT22;61048;52.162;4.516;2022-12-11T11:41:09;15.20;61.20
72905;DHT22;61048;52.162;4.516;2022-12-11T11:43:42;15.30;61.30
72905;DHT22;61048;52.162;4.516;2022-12-11T11:46:15;15.30;61.40
72905;DHT22;61048;52.162;4.516;2022-12-11T11:48:49;15.30;61.30
72905;DHT22;61048;52.162;4.516;2022-12-11T11:51:22;15.30;61.30
72905;DHT22;61048;52.162;4.516;2022-12-11T11:53:53;15.30;61.30
72905;DHT22;61048;52.162;4.516;2022-12-11T11:56:24;15.30;61.10
72905;DHT22;61048;52.162;4.516;2022-12-11T11:59:06;15.30;61.30
72905;DHT22;61048;52.162;4.516;2022-12-11T12:01:40;15.30;61.10
72905;DHT22;61048;52.162;4.516;2022-12-11T12:04:07;15.30;61.30
72905;DHT22;61048;52.162;4.516;2022-12-11T12:06:53;15.40;61.20
72905;DHT22;61048;52.162;4.516;2022-12-11T12:09:33;15.40;61.40
72905;DHT22;61048;52.162;4.516;2022-12-11T12:12:13;15.40;61.70
72905;DHT22;61048;52.162;4.516;2022-12-11T12:14:54;15.40;61.70
72905;DHT22;61048;52.162;4.516;2022-12-11T12:17:31;15.40;61.80
72905;DHT22;61048;52.162;4.516;2022-12-11T12:20:10;15.40;61.70
72905;DHT22;61048;52.162;4.516;2022-12-11T12:22:52;15.40;61.80
72905;DHT22;61048;52.162;4.516;2022-12-11T12:25:26;15.40;61.70
72905;DHT22;61048;52.162;4.516;2022-12-11T12:28:00;15.40;61.90
72905;DHT22;61048;52.162;4.516;2022-12-11T12:30:34;15.40;61.90
72905;DHT22;61048;52.162;4.516;2022-12-11T12:33:16;15.40;61.90
72905;DHT22;61048;52.162;4.516;2022-12-11T12:35:54;15.40;61.90
72905;DHT22;61048;52.162;4.516;2022-12-11T12:38:28;15.40;62.10
72905;DHT22;61048;52.162;4.516;2022-12-11T12:41:04;15.40;63.00
72905;DHT22;61048;52.162;4.516;2022-12-11T12:43:56;15.50;62.90
72905;DHT22;61048;52.162;4.516;2022-12-11T12:46:37;15.50;62.80
72905;DHT22;61048;52.162;4.516;2022-12-11T12:49:11;15.50;62.30
72905;DHT22;61048;52.162;4.516;2022-12-11T12:51:40;15.40;63.00
72905;DHT22;61048;52.162;4.516;2022-12-11T12:54:13;15.40;62.60
72905;DHT22;61048;52.162;4.516;2022-12-11T12:56:41;15.40;62.00
72905;DHT22;61048;52.162;4.516;2022-12-11T12:59:18;15.30;62.60
72905;DHT22;61048;52.162;4.516;2022-12-11T13:01:46;15.30;62.20
72905;DHT22;61048;52.162;4.516;2022-12-11T13:04:34;15.30;62.20
72905;DHT22;61048;52.162;4.516;2022-12-11T13:07:11;15.30;62.30
72905;DHT22;61048;52.162;4.516;2022-12-11T13:09:39;15.30;62.60
72905;DHT22;61048;52.162;4.516;2022-12-11T13:12:12;15.30;62.30
72905;DHT22;61048;52.162;4.516;2022-12-11T13:14:40;15.30;61.60
72905;DHT22;61048;52.162;4.516;2022-12-11T13:17:25;15.30;62.00
72905;DHT22;61048;52.162;4.516;2022-12-11T13:20:11;15.30;62.00
72905;DHT22;61048;52.162;4.516;2022-12-11T13:22:52;15.30;62.00
72905;DHT22;61048;52.162;4.516;2022-12-11T13:25:23;15.30;62.20
72905;DHT22;61048;52.162;4.516;2022-12-11T13:27:51;15.30;62.40
72905;DHT22;61048;52.162;4.516;2022-12-11T13:30:23;15.30;62.40
72905;DHT22;61048;52.162;4.516;2022-12-11T13:32:54;15.30;62.60
72905;DHT22;61048;52.162;4.516;2022-12-11T13:35:25;15.20;62.20
72905;DHT22;61048;52.162;4.516;2022-12-11T13:37:52;15.20;62.70
72905;DHT22;61048;52.162;4.516;2022-12-11T13:40:24;15.20;62.70
72905;DHT22;61048;52.162;4.516;2022-12-11T13:42:54;15.20;62.50
72905;DHT22;61048;52.162;4.516;2022-12-11T13:45:25;15.20;62.60
72905;DHT22;61048;52.162;4.516;2022-12-11T13:47:53;15.20;62.50
72905;DHT22;61048;52.162;4.516;2022-12-11T13:50:27;15.20;62.50
72905;DHT22;61048;52.162;4.516;2022-12-11T13:52:55;15.20;62.20
72905;DHT22;61048;52.162;4.516;2022-12-11T13:55:25;15.20;61.90
72905;DHT22;61048;52.162;4.516;2022-12-11T13:57:52;15.20;62.40
72905;DHT22;61048;52.162;4.516;2022-12-11T14:00:22;15.20;62.40
72905;DHT22;61048;52.162;4.516;2022-12-11T14:02:50;15.20;62.30
72905;DHT22;61048;52.162;4.516;2022-12-11T14:05:18;15.20;62.10
72905;DHT22;61048;52.162;4.516;2022-12-11T14:07:49;15.20;62.00
72905;DHT22;61048;52.162;4.516;2022-12-11T14:10:19;15.10;62.10
72905;DHT22;61048;52.162;4.516;2022-12-11T14:12:50;15.10;62.60
72905;DHT22;61048;52.162;4.516;2022-12-11T14:15:19;15.20;62.40
72905;DHT22;61048;52.162;4.516;2022-12-11T14:17:46;15.20;62.10
72905;DHT22;61048;52.162;4.516;2022-12-11T14:20:17;15.30;61.90
72905;DHT22;61048;52.162;4.516;2022-12-11T14:22:44;15.30;62.60
72905;DHT22;61048;52.162;4.516;2022-12-11T14:25:24;15.40;60.60
72905;DHT22;61048;52.162;4.516;2022-12-11T14:27:55;15.40;61.90
72905;DHT22;61048;52.162;4.516;2022-12-11T14:30:24;15.30;61.60
72905;DHT22;61048;52.162;4.516;2022-12-11T14:32:53;15.30;61.30
72905;DHT22;61048;52.162;4.516;2022-12-11T14:35:25;15.30;61.10
72905;DHT22;61048;52.162;4.516;2022-12-11T14:37:53;15.30;61.10
72905;DHT22;61048;52.162;4.516;2022-12-11T14:40:25;15.30;61.00
72905;DHT22;61048;52.162;4.516;2022-12-11T14:42:56;15.30;61.10
72905;DHT22;61048;52.162;4.516;2022-12-11T14:45:30;15.30;61.00
72905;DHT22;61048;52.162;4.516;2022-12-11T14:47:59;15.30;60.90
72905;DHT22;61048;52.162;4.516;2022-12-11T14:50:33;15.30;60.90
72905;DHT22;61048;52.162;4.516;2022-12-11T14:53:05;15.30;61.20
72905;DHT22;61048;52.162;4.516;2022-12-11T14:55:37;15.30;61.30
72905;DHT22;61048;52.162;4.516;2022-12-11T14:58:14;15.20;61.30
72905;DHT22;61048;52.162;4.516;2022-12-11T15:00:41;15.20;61.40
72905;DHT22;61048;52.162;4.516;2022-12-11T15:03:21;15.20;61.70
72905;DHT22;61048;52.162;4.516;2022-12-11T15:05:51;15.30;62.30
72905;DHT22;61048;52.162;4.516;2022-12-11T15:08:20;15.30;62.10
72905;DHT22;61048;52.162;4.516;2022-12-11T15:11:01;15.40;62.20
72905;DHT22;61048;52.162;4.516;2022-12-11T15:13:28;15.60;62.20
72905;DHT22;61048;52.162;4.516;2022-12-11T15:15:56;15.60;62.00
72905;DHT22;61048;52.162;4.516;2022-12-11T15:18:26;15.70;62.30
72905;DHT22;61048;52.162;4.516;2022-12-11T15:20:56;15.70;62.20
72905;DHT22;61048;52.162;4.516;2022-12-11T15:23:25;15.70;61.90
72905;DHT22;61048;52.162;4.516;2022-12-11T15:25:53;15.60;61.90
72905;DHT22;61048;52.162;4.516;2022-12-11T15:28:30;15.60;61.80
72905;DHT22;61048;52.162;4.516;2022-12-11T15:30:59;15.50;61.80
72905;DHT22;61048;52.162;4.516;2022-12-11T15:33:27;15.50;61.70
72905;DHT22;61048;52.162;4.516;2022-12-11T15:35:59;15.50;61.70
72905;DHT22;61048;52.162;4.516;2022-12-11T15:38:29;15.50;61.70
72905;DHT22;61048;52.162;4.516;2022-12-11T15:40:56;15.40;61.70
72905;DHT22;61048;52.162;4.516;2022-12-11T15:43:23;15.40;61.50
72905;DHT22;61048;52.162;4.516;2022-12-11T15:45:52;15.40;61.40
72905;DHT22;61048;52.162;4.516;2022-12-11T15:48:19;15.40;61.70